»·PEaware :: N5955E KVNY-KSNA

N5955E :: KVNY-KSNA

FLIGHT INFORMATION

Flight Status: Arrived
Operator: Privately registered:
United States
More flights under this callsign
Pilot: Ryan L. (18770)
Aircraft: CESSNA 172 SKYHAWK
(C172)
More flights by this aircraft type
Origin: KVNY Van Nuys
United States
Destination: KSNA John Wayne-Orange Co
United States
More flights between these airports :: More routes between these airports
Route: +
File this flight plan on PilotEdge
Remarks: CAT10
Altitude:
(Current/Filed)
5,500ft
Speed:
(Current/Filed)
0kts
Departed: 15-May-18 06:38 PM
Arrived: 15-May-18 07:14 PM
Distance/Time
Traveled:
17nm/0:36
Distance/Time
To Go:
Arrived

Flight Plot

Page will automatically refresh every two minutes.


Map Options




Map Legend


Flown Route
Filed Route
Departure Airport
Arrival Airport
Navaid (VOR, NDB)
Fix

Horizontal Profiles

Position Reports

Time Latitude Longitude Heading Altitude Ground
Speed
15-May-18 18:26 34.209524 -118.491866 69 806ft 0kts
15-May-18 18:27 34.209524 -118.491866 69 806ft 0kts
15-May-18 18:28 34.209524 -118.491866 68 806ft 0kts
15-May-18 18:29 34.209524 -118.491866 68 806ft 0kts
15-May-18 18:30 34.209524 -118.491866 68 806ft 0kts
15-May-18 18:31 34.210189 -118.491580 354 806ft 8kts
15-May-18 18:32 34.212601 -118.491816 355 806ft 9kts
15-May-18 18:33 34.216847 -118.492268 359 806ft 12kts
15-May-18 18:34 34.218660 -118.492216 44 806ft 0kts
15-May-18 18:35 34.218660 -118.492216 44 806ft 0kts
15-May-18 18:36 34.218660 -118.492216 44 806ft 0kts
15-May-18 18:37 34.218490 -118.491218 163 806ft 12kts
15-May-18 18:38 34.211216 -118.490625 177 938ft 54kts
15-May-18 18:39 34.197132 -118.501508 265 1610ft 81kts
15-May-18 18:40 34.194733 -118.530329 265 2362ft 85kts
15-May-18 18:41 34.193780 -118.559571 258 3060ft 88kts
15-May-18 18:42 34.171990 -118.560793 164 3714ft 89kts
15-May-18 18:43 34.151577 -118.546029 144 4404ft 85kts
15-May-18 18:44 34.130698 -118.532822 163 5040ft 83kts
15-May-18 18:45 34.107035 -118.523525 154 5481ft 99kts
15-May-18 18:46 34.079317 -118.506957 152 5544ft 112kts
15-May-18 18:47 34.054850 -118.491626 152 5546ft 93kts
15-May-18 18:48 34.031095 -118.476072 157 5546ft 105kts
15-May-18 18:49 34.001924 -118.467087 161 5546ft 110kts
15-May-18 18:50 33.973755 -118.452445 144 5546ft 111kts
15-May-18 18:51 33.945449 -118.438292 160 5546ft 111kts
15-May-18 18:52 33.919508 -118.419606 137 5546ft 111kts
15-May-18 18:53 33.898301 -118.393229 138 5546ft 111kts
15-May-18 18:54 33.874522 -118.369591 138 5546ft 111kts
15-May-18 18:55 33.851673 -118.344699 137 5546ft 111kts
15-May-18 18:56 33.828823 -118.319630 138 5546ft 111kts
15-May-18 18:57 33.806125 -118.295202 138 5546ft 111kts
15-May-18 18:58 33.782969 -118.270367 138 5546ft 111kts
15-May-18 18:59 33.761246 -118.247029 138 5546ft 111kts
15-May-18 19:00 33.738202 -118.222248 138 5546ft 111kts
15-May-18 19:01 33.729117 -118.186570 100 4932ft 115kts
15-May-18 19:02 33.723009 -118.149523 100 4231ft 113kts
15-May-18 19:03 33.718659 -118.112306 76 3525ft 115kts
15-May-18 19:04 33.723157 -118.073594 86 2825ft 118kts
15-May-18 19:05 33.724105 -118.034372 90 2126ft 117kts
15-May-18 19:06 33.723784 -117.997570 90 1747ft 104kts
15-May-18 19:07 33.723481 -117.962136 90 1517ft 98kts
15-May-18 19:08 33.715010 -117.932979 124 1518ft 95kts
15-May-18 19:09 33.699219 -117.906742 126 1519ft 98kts
15-May-18 19:10 33.693566 -117.877921 40 1036ft 88kts
15-May-18 19:11 33.711199 -117.861890 36 1035ft 77kts
15-May-18 19:12 33.708639 -117.847523 220 684ft 76kts
15-May-18 19:13 33.691555 -117.858722 208 369ft 65kts
15-May-18 19:14 33.677570 -117.867533 206 60ft 20kts
15-May-18 19:15 33.675767 -117.870535 304 60ft 9kts
15-May-18 19:16 33.676329 -117.871070 123 60ft 0kts
15-May-18 19:17 33.945760 -118.402201 150 113ft 0kts
15-May-18 19:18 33.945760 -118.402201 150 113ft 0kts
15-May-18 19:19 33.945760 -118.402201 150 113ft 0kts
15-May-18 19:20 33.935428 -118.380310 68 96ft 0kts
15-May-18 19:21 33.935428 -118.380310 68 96ft 0kts
15-May-18 19:22 33.935428 -118.380310 68 96ft 0kts
15-May-18 19:23 33.935428 -118.380310 68 96ft 0kts
15-May-18 19:24 33.935428 -118.380310 68 96ft 0kts
15-May-18 19:25 33.935428 -118.380310 68 96ft 0kts
15-May-18 19:26 33.935428 -118.380310 68 96ft 0kts
15-May-18 19:27 33.935428 -118.380310 68 96ft 0kts
15-May-18 19:28 33.935428 -118.380310 68 96ft 0kts

Navigation Log

Ident Type
1. KVNY Airport
2. KSNA Airport